Time;durP1;ratioP1;P1;durP2;ratioP2;P2;SDS_P1;SDS_P2;PMS_P1;PMS_P2;Temp;Humidity;BMP_temperature;BMP_pressure;BME280_temperature;BME280_humidity;BME280_pressure;Samples;Min_cycle;Max_cycle;Signal;HPM_P1;HPM_P2
2022/04/13 00:01:08;;;;;;;153.93;24.00;;;;;;;;;;5003305;28;20219;-53
2022/04/13 00:03:34;;;;;;;144.20;21.90;;;;;;;;;;5004609;28;20310;-52
2022/04/13 00:06:00;;;;;;;131.37;19.80;;;;;;;;;;5001789;28;20223;-52
2022/04/13 00:08:26;;;;;;;148.73;22.87;;;;;;;;;;5002787;28;20230;-52
2022/04/13 00:10:52;;;;;;;139.27;20.93;;;;;;;;;;5002245;28;20559;-52
2022/04/13 00:13:18;;;;;;;198.10;30.00;;;;;;;;;;4996578;28;20961;-52
2022/04/13 00:15:44;;;;;;;90.57;14.23;;;;;;;;;;5007581;28;20220;-53
2022/04/13 00:18:10;;;;;;;156.57;23.90;;;;;;;;;;5005691;28;20231;-52
2022/04/13 00:20:36;;;;;;;142.50;21.80;;;;;;;;;;5000888;28;20944;-52
2022/04/13 00:23:03;;;;;;;87.17;14.07;;;;;;;;;;5006452;28;20966;-52
2022/04/13 00:25:29;;;;;;;108.70;17.83;;;;;;;;;;5004272;28;20208;-52
2022/04/13 00:27:55;;;;;;;136.47;21.37;;;;;;;;;;4995070;28;20363;-53
2022/04/13 00:30:22;;;;;;;117.50;18.43;;;;;;;;;;5001594;28;20811;-53
2022/04/13 00:32:48;;;;;;;171.97;27.57;;;;;;;;;;5004848;28;20273;-53
2022/04/13 00:35:14;;;;;;;242.70;39.83;;;;;;;;;;4996335;28;20622;-53
2022/04/13 00:37:40;;;;;;;208.90;34.30;;;;;;;;;;4999477;28;20278;-51
2022/04/13 00:40:07;;;;;;;122.60;20.30;;;;;;;;;;4995404;28;20224;-52
2022/04/13 00:42:33;;;;;;;124.83;20.73;;;;;;;;;;4998092;28;20723;-52
2022/04/13 00:44:59;;;;;;;171.63;27.37;;;;;;;;;;4999188;28;20267;-52
2022/04/13 00:47:25;;;;;;;174.10;28.27;;;;;;;;;;5004225;28;20676;-52
2022/04/13 00:49:54;;;;;;;185.30;29.07;;;;;;;;;;4998843;28;20192;-52
2022/04/13 00:52:21;;;;;;;146.63;23.17;;;;;;;;;;4999808;28;20562;-52
2022/04/13 00:54:48;;;;;;;134.07;23.07;;;;;;;;;;5001327;28;20688;-52
2022/04/13 00:57:15;;;;;;;142.50;23.37;;;;;;;;;;5000755;28;20520;-52
2022/04/13 00:59:42;;;;;;;173.50;27.70;;;;;;;;;;4997151;28;20236;-52
2022/04/13 01:02:08;;;;;;;201.40;31.77;;;;;;;;;;5000409;28;20193;-52
2022/04/13 01:04:35;;;;;;;127.70;20.53;;;;;;;;;;5000107;28;20225;-52
2022/04/13 01:07:07;;;;;;;133.47;21.00;;;;;;;;;;4993702;28;20224;-52
2022/04/13 01:09:34;;;;;;;229.07;35.33;;;;;;;;;;4998038;28;20224;-53
2022/04/13 01:12:00;;;;;;;204.90;32.30;;;;;;;;;;4998712;28;20589;-53
2022/04/13 01:14:26;;;;;;;170.50;27.27;;;;;;;;;;5002518;28;20653;-53
2022/04/13 01:16:52;;;;;;;122.20;19.53;;;;;;;;;;5002594;28;20368;-52
2022/04/13 01:19:18;;;;;;;125.67;20.53;;;;;;;;;;5002085;28;20221;-52
2022/04/13 01:21:52;;;;;;;116.37;18.47;;;;;;;;;;5000951;28;20213;-52
2022/04/13 01:24:19;;;;;;;132.67;21.33;;;;;;;;;;5004086;28;20639;-53
2022/04/13 01:26:45;;;;;;;132.30;20.80;;;;;;;;;;5007642;28;20642;-52
2022/04/13 01:29:12;;;;;;;184.70;28.80;;;;;;;;;;5002119;28;20791;-53
2022/04/13 01:31:38;;;;;;;122.20;19.47;;;;;;;;;;5007570;28;20240;-54
2022/04/13 01:34:04;;;;;;;106.33;16.43;;;;;;;;;;5008635;28;20232;-53
2022/04/13 01:36:32;;;;;;;140.87;22.00;;;;;;;;;;5008805;28;20635;-53
2022/04/13 01:38:58;;;;;;;137.73;21.37;;;;;;;;;;5003791;28;20643;-53
2022/04/13 01:41:24;;;;;;;138.40;21.50;;;;;;;;;;5003147;28;20184;-53
2022/04/13 01:43:50;;;;;;;190.33;28.47;;;;;;;;;;5002430;28;20213;-52
2022/04/13 01:46:16;;;;;;;119.40;19.70;;;;;;;;;;4999291;28;20217;-53
2022/04/13 01:48:42;;;;;;;98.37;17.07;;;;;;;;;;5005463;28;20672;-53
2022/04/13 01:51:08;;;;;;;122.97;33.23;;;;;;;;;;5006212;28;20246;-53
2022/04/13 01:53:35;;;;;;;135.87;34.57;;;;;;;;;;4996574;28;20180;-53
2022/04/13 01:56:01;;;;;;;239.37;50.23;;;;;;;;;;5001353;28;20192;-53
2022/04/13 01:58:27;;;;;;;126.03;26.10;;;;;;;;;;5002749;28;20706;-53
2022/04/13 02:00:55;;;;;;;159.90;32.67;;;;;;;;;;5000463;28;20762;-52
2022/04/13 02:03:22;;;;;;;142.37;28.80;;;;;;;;;;4995052;28;20472;-53
2022/04/13 02:05:48;;;;;;;156.73;31.73;;;;;;;;;;4996929;28;20282;-53
2022/04/13 02:08:14;;;;;;;125.63;24.77;;;;;;;;;;5010581;28;20204;-53
2022/04/13 02:10:40;;;;;;;100.50;19.87;;;;;;;;;;5003199;28;20546;-53
2022/04/13 02:13:06;;;;;;;98.67;19.30;;;;;;;;;;5004582;28;20216;-53
2022/04/13 02:15:32;;;;;;;81.63;16.90;;;;;;;;;;5013773;28;20367;-53
2022/04/13 02:17:58;;;;;;;130.83;23.67;;;;;;;;;;5011334;28;21494;-53
2022/04/13 02:20:24;;;;;;;192.03;34.97;;;;;;;;;;5005194;28;20181;-53
2022/04/13 02:22:50;;;;;;;161.00;30.33;;;;;;;;;;5013587;28;20184;-52
2022/04/13 02:25:16;;;;;;;98.20;18.20;;;;;;;;;;5009334;28;20219;-52
2022/04/13 02:27:42;;;;;;;165.37;29.77;;;;;;;;;;5006727;28;20380;-53
2022/04/13 02:30:09;;;;;;;223.37;39.47;;;;;;;;;;5002730;28;20295;-53
2022/04/13 02:32:39;;;;;;;167.00;30.67;;;;;;;;;;4996451;28;20989;-52
2022/04/13 02:39:35;;;;;;;213.87;31.07;;;;;;;;;;5007115;28;20603;-52
2022/04/13 02:42:01;;;;;;;212.53;31.43;;;;;;;;;;4981664;28;20235;-52
2022/04/13 02:44:27;;;;;;;178.53;27.17;;;;;;;;;;4980865;28;20656;-53
2022/04/13 02:46:53;;;;;;;80.43;12.30;;;;;;;;;;4967885;28;20505;-52
2022/04/13 02:49:19;;;;;;;149.00;22.23;;;;;;;;;;4968341;28;20588;-53
2022/04/13 02:51:45;;;;;;;142.80;21.10;;;;;;;;;;4968622;28;20214;-52
2022/04/13 02:54:11;;;;;;;74.80;11.73;;;;;;;;;;4964610;28;20583;-53
2022/04/13 02:56:36;;;;;;;115.00;17.33;;;;;;;;;;4962555;28;20234;-53
2022/04/13 02:59:02;;;;;;;130.30;19.37;;;;;;;;;;4964924;28;20598;-53
2022/04/13 03:01:28;;;;;;;145.90;22.03;;;;;;;;;;4969288;28;20233;-52
2022/04/13 03:03:55;;;;;;;82.80;12.53;;;;;;;;;;4963482;28;20213;-53
2022/04/13 03:06:22;;;;;;;115.33;17.70;;;;;;;;;;4965414;28;20218;-53
2022/04/13 03:08:47;;;;;;;160.47;23.87;;;;;;;;;;4963358;28;20240;-53
2022/04/13 03:11:13;;;;;;;211.50;31.20;;;;;;;;;;4965036;28;20666;-52
2022/04/13 03:13:39;;;;;;;178.17;26.53;;;;;;;;;;4962675;28;20248;-53
2022/04/13 03:16:06;;;;;;;118.73;17.83;;;;;;;;;;4967160;28;20650;-53
2022/04/13 03:18:32;;;;;;;94.37;14.37;;;;;;;;;;4963907;28;20213;-52
2022/04/13 03:20:58;;;;;;;144.20;21.03;;;;;;;;;;4964381;28;20229;-52
2022/04/13 03:23:24;;;;;;;192.80;29.30;;;;;;;;;;4965491;28;20285;-53
2022/04/13 03:25:50;;;;;;;137.70;20.27;;;;;;;;;;4961057;28;20229;-53
2022/04/13 03:28:16;;;;;;;147.83;21.97;;;;;;;;;;4968073;28;20628;-53
2022/04/13 03:30:42;;;;;;;165.57;24.37;;;;;;;;;;4962119;28;20557;-53
2022/04/13 03:33:08;;;;;;;105.20;15.90;;;;;;;;;;4955490;28;20233;-53
2022/04/13 03:35:34;;;;;;;165.77;25.07;;;;;;;;;;4966999;28;20256;-52
2022/04/13 03:38:00;;;;;;;180.43;25.83;;;;;;;;;;4961580;28;20228;-53
2022/04/13 03:40:26;;;;;;;141.53;21.10;;;;;;;;;;4960252;28;20244;-53
2022/04/13 03:42:52;;;;;;;90.77;13.67;;;;;;;;;;4968048;28;20717;-53
2022/04/13 03:45:18;;;;;;;151.63;22.00;;;;;;;;;;4959524;28;20574;-52
2022/04/13 03:47:44;;;;;;;161.10;23.70;;;;;;;;;;4961107;28;20241;-52
2022/04/13 03:50:10;;;;;;;173.13;26.70;;;;;;;;;;4951113;28;20656;-53
2022/04/13 03:52:37;;;;;;;136.93;20.73;;;;;;;;;;4949157;28;20749;-53
2022/04/13 03:55:04;;;;;;;136.63;19.97;;;;;;;;;;4948986;28;20579;-53
2022/04/13 03:57:31;;;;;;;119.13;17.67;;;;;;;;;;4949822;28;20280;-52
2022/04/13 03:59:57;;;;;;;198.37;29.37;;;;;;;;;;4951060;28;20214;-53
2022/04/13 04:02:23;;;;;;;90.63;14.43;;;;;;;;;;4952853;28;20459;-53
2022/04/13 04:04:49;;;;;;;180.43;25.73;;;;;;;;;;4952351;28;20186;-53
2022/04/13 04:07:15;;;;;;;111.30;16.80;;;;;;;;;;4949863;28;20244;-52
2022/04/13 04:09:41;;;;;;;146.47;22.17;;;;;;;;;;4948574;28;20218;-52
2022/04/13 04:12:07;;;;;;;141.57;21.13;;;;;;;;;;4952797;28;20214;-52
2022/04/13 04:14:33;;;;;;;112.60;17.20;;;;;;;;;;4949746;28;20183;-52
2022/04/13 04:16:59;;;;;;;146.43;21.63;;;;;;;;;;4960458;28;20938;-52
2022/04/13 04:19:25;;;;;;;197.00;28.70;;;;;;;;;;4952972;28;20218;-52
2022/04/13 04:21:51;;;;;;;120.23;17.83;;;;;;;;;;4952720;28;20226;-52
2022/04/13 04:24:17;;;;;;;102.93;15.37;;;;;;;;;;4947540;28;20226;-54
2022/04/13 04:26:43;;;;;;;152.17;22.63;;;;;;;;;;4954088;28;20237;-53
2022/04/13 04:29:09;;;;;;;210.73;31.23;;;;;;;;;;4944778;28;20321;-52
2022/04/13 04:31:51;;;;;;;132.00;19.43;;;;;;;;;;4959590;28;20225;-52
2022/04/13 04:34:17;;;;;;;96.97;14.67;;;;;;;;;;4948165;28;20242;-52
2022/04/13 04:36:44;;;;;;;114.30;17.10;;;;;;;;;;4945567;28;20278;-53
2022/04/13 04:39:10;;;;;;;158.30;23.03;;;;;;;;;;4950866;28;20283;-53
2022/04/13 04:41:36;;;;;;;96.77;14.43;;;;;;;;;;4950462;28;20186;-53
2022/04/13 04:44:02;;;;;;;189.37;27.53;;;;;;;;;;4950411;28;20221;-53
2022/04/13 04:46:28;;;;;;;148.47;22.07;;;;;;;;;;4945858;28;20477;-53
2022/04/13 04:48:54;;;;;;;164.43;24.47;;;;;;;;;;4945806;28;20684;-52
2022/04/13 04:51:20;;;;;;;144.97;21.13;;;;;;;;;;4946128;28;20709;-53
2022/04/13 04:53:49;;;;;;;205.20;30.37;;;;;;;;;;4945629;28;20218;-53
2022/04/13 04:56:15;;;;;;;108.03;15.93;;;;;;;;;;4954798;28;20211;-53
2022/04/13 04:58:41;;;;;;;192.37;27.57;;;;;;;;;;4945933;28;20344;-53
2022/04/13 05:01:07;;;;;;;158.07;23.37;;;;;;;;;;4949210;28;20964;-54
2022/04/13 05:03:33;;;;;;;155.77;22.83;;;;;;;;;;4950130;28;21138;-53
2022/04/13 05:05:59;;;;;;;176.93;25.50;;;;;;;;;;4949260;28;20757;-52
2022/04/13 05:08:25;;;;;;;195.50;29.40;;;;;;;;;;4946144;28;20206;-52
2022/04/13 05:10:51;;;;;;;147.47;21.43;;;;;;;;;;4948007;28;20290;-53
2022/04/13 05:13:18;;;;;;;185.20;27.33;;;;;;;;;;4949923;28;20225;-53
2022/04/13 05:15:45;;;;;;;105.30;16.20;;;;;;;;;;4947520;28;20257;-53
2022/04/13 05:18:11;;;;;;;155.27;22.60;;;;;;;;;;4941788;28;20344;-53
2022/04/13 05:20:37;;;;;;;69.90;10.97;;;;;;;;;;4950825;28;21331;-53
2022/04/13 05:23:03;;;;;;;155.67;23.07;;;;;;;;;;4946503;28;20437;-53
2022/04/13 05:25:29;;;;;;;110.57;16.70;;;;;;;;;;4945533;28;20838;-52
2022/04/13 05:27:55;;;;;;;196.97;28.70;;;;;;;;;;4944406;28;20210;-53
2022/04/13 05:30:21;;;;;;;165.80;24.03;;;;;;;;;;4942166;28;20230;-52
2022/04/13 05:32:53;;;;;;;72.70;11.20;;;;;;;;;;4951513;28;20397;-54
2022/04/13 05:35:19;;;;;;;109.27;16.47;;;;;;;;;;4954123;28;20711;-54
2022/04/13 05:37:45;;;;;;;138.00;20.57;;;;;;;;;;4952883;28;20254;-54
2022/04/13 05:40:12;;;;;;;182.47;26.27;;;;;;;;;;4951538;28;20225;-53
2022/04/13 05:42:38;;;;;;;179.80;26.43;;;;;;;;;;4960956;28;20795;-54
2022/04/13 05:45:04;;;;;;;213.30;30.33;;;;;;;;;;4934317;28;20238;-54
2022/04/13 05:47:30;;;;;;;123.50;18.53;;;;;;;;;;4954632;28;20274;-54
2022/04/13 05:49:56;;;;;;;186.80;26.47;;;;;;;;;;4944931;28;20629;-53
2022/04/13 05:52:22;;;;;;;181.90;26.47;;;;;;;;;;4949226;28;20218;-54
2022/04/13 05:54:48;;;;;;;114.03;17.13;;;;;;;;;;4944907;28;20269;-54
2022/04/13 05:57:14;;;;;;;156.13;22.73;;;;;;;;;;4948947;28;20237;-54
2022/04/13 05:59:40;;;;;;;317.83;47.90;;;;;;;;;;4951273;28;20218;-54
2022/04/13 06:02:06;;;;;;;334.73;52.43;;;;;;;;;;4941880;28;20201;-54
2022/04/13 06:04:32;;;;;;;160.57;23.37;;;;;;;;;;4946278;28;20221;-54
2022/04/13 06:06:59;;;;;;;184.53;27.03;;;;;;;;;;4946234;28;20264;-53
2022/04/13 06:09:25;;;;;;;125.73;18.97;;;;;;;;;;4940414;28;20543;-54
2022/04/13 06:11:51;;;;;;;185.77;27.33;;;;;;;;;;4942523;28;20325;-54
2022/04/13 06:14:17;;;;;;;122.27;17.90;;;;;;;;;;4951687;28;20204;-54
2022/04/13 06:16:44;;;;;;;179.90;26.40;;;;;;;;;;4944151;28;20226;-53
2022/04/13 06:19:10;;;;;;;104.93;15.30;;;;;;;;;;4944822;28;20256;-54
2022/04/13 06:21:36;;;;;;;123.80;17.67;;;;;;;;;;4934950;28;20222;-54
2022/04/13 06:24:03;;;;;;;207.40;27.63;;;;;;;;;;4958338;28;20218;-53
2022/04/13 06:26:28;;;;;;;192.37;26.33;;;;;;;;;;4947992;28;20207;-52
2022/04/13 06:28:54;;;;;;;164.23;23.00;;;;;;;;;;4950325;28;20252;-52
2022/04/13 06:31:20;;;;;;;221.80;31.23;;;;;;;;;;4947785;28;20341;-52
2022/04/13 06:33:48;;;;;;;125.63;18.57;;;;;;;;;;4952333;28;20210;-52
2022/04/13 06:36:14;;;;;;;155.90;21.97;;;;;;;;;;4944940;28;20244;-52
2022/04/13 06:38:41;;;;;;;249.50;34.10;;;;;;;;;;4940181;28;20222;-52
2022/04/13 06:41:15;;;;;;;187.87;26.60;;;;;;;;;;4946357;28;20194;-52
2022/04/13 06:43:42;;;;;;;139.40;20.70;;;;;;;;;;4951550;28;20218;-53
2022/04/13 06:46:09;;;;;;;198.63;30.07;;;;;;;;;;4932941;28;20218;-53
2022/04/13 06:48:35;;;;;;;145.63;22.03;;;;;;;;;;4913564;28;20214;-53
2022/04/13 06:51:03;;;;;;;284.40;42.60;;;;;;;;;;4928415;28;20221;-54
2022/04/13 06:53:29;;;;;;;229.77;34.53;;;;;;;;;;4930999;28;20260;-53
2022/04/13 06:55:55;;;;;;;249.20;39.07;;;;;;;;;;4947019;28;20218;-52
2022/04/13 06:58:21;;;;;;;178.97;26.80;;;;;;;;;;4938318;28;20221;-53
2022/04/13 07:00:47;;;;;;;128.77;19.77;;;;;;;;;;4948707;28;20224;-52
2022/04/13 07:03:13;;;;;;;132.83;20.53;;;;;;;;;;4953756;28;20641;-52
2022/04/13 07:05:40;;;;;;;180.90;29.97;;;;;;;;;;4954664;28;20232;-53
2022/04/13 07:08:06;;;;;;;105.97;16.97;;;;;;;;;;4960418;28;20758;-53
2022/04/13 07:10:33;;;;;;;192.63;28.43;;;;;;;;;;4958940;28;20219;-53
2022/04/13 07:12:59;;;;;;;100.83;15.63;;;;;;;;;;4964966;28;20210;-53
2022/04/13 07:15:25;;;;;;;125.33;19.17;;;;;;;;;;4959583;28;20220;-53
2022/04/13 07:17:51;;;;;;;147.90;22.33;;;;;;;;;;4958194;28;20950;-53
2022/04/13 07:20:17;;;;;;;113.57;18.07;;;;;;;;;;4947315;28;20190;-53
2022/04/13 07:22:47;;;;;;;107.53;17.07;;;;;;;;;;4953114;28;20223;-53
2022/04/13 07:25:14;;;;;;;141.77;22.63;;;;;;;;;;4955340;28;20543;-53
2022/04/13 07:27:40;;;;;;;88.70;14.27;;;;;;;;;;4955806;28;20219;-53
2022/04/13 07:30:06;;;;;;;172.53;26.70;;;;;;;;;;4956632;28;20225;-53
2022/04/13 07:32:32;;;;;;;102.33;15.97;;;;;;;;;;4948478;28;20210;-50
2022/04/13 07:34:59;;;;;;;223.47;34.03;;;;;;;;;;4955683;28;20198;-53
2022/04/13 07:37:25;;;;;;;175.63;26.47;;;;;;;;;;4946557;28;20214;-53
2022/04/13 07:39:52;;;;;;;251.07;37.53;;;;;;;;;;4941085;28;20571;-53
2022/04/13 07:42:24;;;;;;;248.90;36.63;;;;;;;;;;4939501;28;20648;-53
2022/04/13 07:44:50;;;;;;;160.43;25.73;;;;;;;;;;4944243;28;20727;-53
2022/04/13 07:47:17;;;;;;;111.40;17.57;;;;;;;;;;4944025;28;20209;-53
2022/04/13 07:49:43;;;;;;;238.60;39.10;;;;;;;;;;4946659;28;20772;-53
2022/04/13 07:52:09;;;;;;;223.40;35.93;;;;;;;;;;4942140;28;20315;-53
2022/04/13 07:54:36;;;;;;;102.80;16.57;;;;;;;;;;4961826;28;20210;-54
2022/04/13 07:57:02;;;;;;;75.23;12.37;;;;;;;;;;4976114;28;20236;-53
2022/04/13 07:59:29;;;;;;;76.50;13.03;;;;;;;;;;4954800;28;20611;-54
2022/04/13 08:01:55;;;;;;;79.03;13.57;;;;;;;;;;4972600;28;20193;-54
2022/04/13 08:04:21;;;;;;;51.57;9.00;;;;;;;;;;4971115;28;20612;-54
2022/04/13 08:06:48;;;;;;;111.93;18.97;;;;;;;;;;4970074;28;20454;-51
2022/04/13 08:09:14;;;;;;;41.83;7.70;;;;;;;;;;4971531;28;20528;-51
2022/04/13 08:11:40;;;;;;;73.40;12.83;;;;;;;;;;4973407;28;20698;-51
2022/04/13 08:14:06;;;;;;;81.53;14.77;;;;;;;;;;4972677;28;20190;-54
2022/04/13 08:16:32;;;;;;;48.57;9.73;;;;;;;;;;4971582;28;20222;-51
2022/04/13 08:18:58;;;;;;;102.10;18.30;;;;;;;;;;4954035;28;20244;-51
2022/04/13 08:21:24;;;;;;;70.23;12.97;;;;;;;;;;4967120;28;20214;-51
2022/04/13 08:23:50;;;;;;;71.13;13.00;;;;;;;;;;4973717;28;20224;-51
2022/04/13 08:26:16;;;;;;;106.73;18.50;;;;;;;;;;4968947;28;20201;-51
2022/04/13 08:28:42;;;;;;;83.37;16.13;;;;;;;;;;4965294;28;20229;-51
2022/04/13 08:31:09;;;;;;;84.47;15.80;;;;;;;;;;4962515;28;20206;-51
2022/04/13 08:33:35;;;;;;;64.72;12.70;;;;;;;;;;4969787;28;20710;-53
2022/04/13 08:36:01;;;;;;;89.83;17.13;;;;;;;;;;4973710;28;20272;-54
2022/04/13 08:38:27;;;;;;;75.30;14.63;;;;;;;;;;4966089;28;20659;-54
2022/04/13 08:40:58;;;;;;;95.13;17.43;;;;;;;;;;4968654;28;20191;-54
2022/04/13 08:43:45;;;;;;;68.63;13.40;;;;;;;;;;4970852;28;20691;-54
2022/04/13 08:46:14;;;;;;;42.73;8.33;;;;;;;;;;4956887;28;20215;-54
2022/04/13 08:48:40;;;;;;;94.17;18.10;;;;;;;;;;4968304;28;20222;-54
2022/04/13 08:51:10;;;;;;;103.57;21.48;;;;;;;;;;4967978;28;20322;-51
2022/04/13 08:53:36;;;;;;;76.63;18.70;;;;;;;;;;4970816;28;20197;-54
2022/04/13 08:56:03;;;;;;;73.80;20.90;;;;;;;;;;4970779;28;20694;-51
2022/04/13 08:58:41;;;;;;;86.67;33.93;;;;;;;;;;4971561;28;20222;-54
2022/04/13 09:01:15;;;;;;;108.47;59.20;;;;;;;;;;4970471;28;20218;-54
2022/04/13 09:03:48;;;;;;;108.63;57.17;;;;;;;;;;4965122;28;20217;-52
2022/04/13 09:06:15;;;;;;;150.57;89.97;;;;;;;;;;4971344;28;20308;-51
2022/04/13 09:08:46;;;;;;;177.77;93.67;;;;;;;;;;4970565;28;20324;-53
2022/04/13 09:11:13;;;;;;;64.53;9.95;;;;;;;;;;4956191;28;20261;-51
2022/04/13 09:13:39;;;;;;;44.40;7.28;;;;;;;;;;4969100;28;20238;-51
2022/04/13 09:16:05;;;;;;;68.15;10.65;;;;;;;;;;4970146;28;20599;-54
2022/04/13 09:18:31;;;;;;;50.25;7.88;;;;;;;;;;4963559;28;20278;-53
2022/04/13 09:20:59;;;;;;;73.85;11.32;;;;;;;;;;4970008;28;20210;-54
2022/04/13 09:23:26;;;;;;;53.95;8.43;;;;;;;;;;4970960;28;20194;-52
2022/04/13 09:25:52;;;;;;;93.25;14.30;;;;;;;;;;4970126;28;20222;-52
2022/04/13 09:28:18;;;;;;;59.92;9.48;;;;;;;;;;4967076;28;20328;-54
2022/04/13 09:30:44;;;;;;;29.80;5.13;;;;;;;;;;4968613;28;20218;-51
2022/04/13 09:33:10;;;;;;;61.25;9.63;;;;;;;;;;4971549;28;20565;-51
2022/04/13 09:35:36;;;;;;;59.75;9.38;;;;;;;;;;4970310;28;20288;-51
2022/04/13 09:38:06;;;;;;;46.92;7.55;;;;;;;;;;4970363;28;20198;-51
2022/04/13 09:40:35;;;;;;;75.22;12.02;;;;;;;;;;4969400;28;20641;-52
2022/04/13 09:43:05;;;;;;;63.95;10.23;;;;;;;;;;4969770;28;20214;-52
2022/04/13 09:45:42;;;;;;;40.47;6.85;;;;;;;;;;4969803;28;20309;-52
2022/04/13 09:48:18;;;;;;;70.90;11.32;;;;;;;;;;4972196;28;20226;-53
2022/04/13 09:50:45;;;;;;;61.28;9.95;;;;;;;;;;4969843;28;20217;-53
2022/04/13 09:53:12;;;;;;;59.47;10.02;;;;;;;;;;4970561;28;20193;-53
2022/04/13 09:55:42;;;;;;;46.58;7.72;;;;;;;;;;4969653;28;20276;-53
2022/04/13 09:58:15;;;;;;;58.75;9.60;;;;;;;;;;4970109;28;20224;-53
2022/04/13 10:00:42;;;;;;;66.30;10.48;;;;;;;;;;4980879;28;20299;-53
2022/04/13 10:03:12;;;;;;;54.03;8.85;;;;;;;;;;4989099;28;20321;-53
2022/04/13 10:05:42;;;;;;;73.97;11.63;;;;;;;;;;4983155;28;20221;-53
2022/04/13 10:08:08;;;;;;;67.43;10.88;;;;;;;;;;4970044;28;20436;-53
2022/04/13 10:10:35;;;;;;;53.95;8.93;;;;;;;;;;4972969;28;20210;-53
2022/04/13 10:13:01;;;;;;;59.17;10.13;;;;;;;;;;4970057;28;20226;-53
2022/04/13 10:15:27;;;;;;;74.85;12.63;;;;;;;;;;4969158;28;20560;-53
2022/04/13 10:17:58;;;;;;;57.50;10.10;;;;;;;;;;4969792;28;20293;-52
2022/04/13 10:20:24;;;;;;;79.75;13.50;;;;;;;;;;4970408;28;20170;-53
2022/04/13 10:23:03;;;;;;;81.82;13.65;;;;;;;;;;4989434;28;20189;-53
2022/04/13 10:25:29;;;;;;;71.80;11.77;;;;;;;;;;4988836;28;20220;-53
2022/04/13 10:27:59;;;;;;;61.53;10.40;;;;;;;;;;4972013;28;20325;-53
2022/04/13 10:30:26;;;;;;;64.50;10.82;;;;;;;;;;4968883;28;20248;-53
2022/04/13 10:33:02;;;;;;;63.75;10.57;;;;;;;;;;4970911;28;20214;-52
2022/04/13 10:35:30;;;;;;;59.70;10.38;;;;;;;;;;4968567;28;20671;-52
2022/04/13 10:37:56;;;;;;;55.70;9.57;;;;;;;;;;4969334;28;20194;-52
2022/04/13 10:40:25;;;;;;;69.82;11.50;;;;;;;;;;4968449;28;20218;-52
2022/04/13 10:42:52;;;;;;;59.28;10.10;;;;;;;;;;4968707;28;20218;-52
2022/04/13 10:45:18;;;;;;;71.95;11.65;;;;;;;;;;4967071;28;20293;-52
2022/04/13 10:48:05;;;;;;;65.47;10.73;;;;;;;;;;4970388;28;20217;-53
2022/04/13 10:50:33;;;;;;;72.95;12.20;;;;;;;;;;4968416;28;20376;-53
2022/04/13 10:53:19;;;;;;;69.47;11.38;;;;;;;;;;4969551;28;20261;-52
2022/04/13 10:55:45;;;;;;;74.45;12.23;;;;;;;;;;4969191;28;20222;-52
2022/04/13 10:58:27;;;;;;;77.70;12.75;;;;;;;;;;4968411;28;20261;-52
2022/04/13 11:01:02;;;;;;;63.00;10.63;;;;;;;;;;4983967;28;20240;-53
2022/04/13 11:03:32;;;;;;;75.70;12.73;;;;;;;;;;4977888;28;20248;-53
2022/04/13 11:05:58;;;;;;;56.67;9.48;;;;;;;;;;4972512;28;20237;-53
2022/04/13 11:08:27;;;;;;;58.35;10.18;;;;;;;;;;4973654;28;20194;-52
2022/04/13 11:10:53;;;;;;;69.55;11.65;;;;;;;;;;4977028;28;20194;-52
2022/04/13 11:13:20;;;;;;;75.72;12.60;;;;;;;;;;4976136;28;20217;-52
2022/04/13 11:15:50;;;;;;;79.25;13.18;;;;;;;;;;4976871;28;20220;-52
2022/04/13 11:18:20;;;;;;;76.97;12.93;;;;;;;;;;4991889;28;20219;-53
2022/04/13 11:21:15;;;;;;;59.92;10.30;;;;;;;;;;4978537;28;20564;-53
2022/04/13 11:23:44;;;;;;;64.70;10.82;;;;;;;;;;4970944;28;20222;-52
2022/04/13 11:26:10;;;;;;;53.22;9.13;;;;;;;;;;4978924;28;20496;-52
2022/04/13 11:28:36;;;;;;;46.03;8.43;;;;;;;;;;4991579;28;20224;-53
2022/04/13 11:31:02;;;;;;;73.97;13.07;;;;;;;;;;4973248;28;20221;-53
2022/04/13 11:33:46;;;;;;;82.20;14.43;;;;;;;;;;4975733;28;20273;-53
2022/04/13 11:36:12;;;;;;;43.35;7.97;;;;;;;;;;4975434;28;20214;-52
2022/04/13 11:38:46;;;;;;;66.22;11.82;;;;;;;;;;4971759;28;20578;-53
2022/04/13 11:41:12;;;;;;;79.82;14.20;;;;;;;;;;4971758;28;20158;-53
2022/04/13 11:43:39;;;;;;;49.15;8.38;;;;;;;;;;4971972;28;20679;-53
2022/04/13 11:46:06;;;;;;;65.97;11.40;;;;;;;;;;4978070;28;20226;-53
2022/04/13 11:48:33;;;;;;;73.07;12.68;;;;;;;;;;4986018;28;20721;-53
2022/04/13 11:51:34;;;;;;;61.25;10.73;;;;;;;;;;4988907;28;20296;-52
2022/04/13 11:54:07;;;;;;;71.50;12.70;;;;;;;;;;4956570;28;20296;-53
2022/04/13 11:56:34;;;;;;;40.20;7.50;;;;;;;;;;4974538;28;20579;-53
2022/04/13 11:59:00;;;;;;;76.60;13.45;;;;;;;;;;4983281;28;20186;-52
2022/04/13 12:01:27;;;;;;;48.58;8.90;;;;;;;;;;4988903;28;20551;-53
2022/04/13 12:03:53;;;;;;;71.00;12.20;;;;;;;;;;4981911;28;20214;-53
2022/04/13 12:06:21;;;;;;;64.22;11.73;;;;;;;;;;4971534;28;20636;-53
2022/04/13 12:08:50;;;;;;;73.22;13.20;;;;;;;;;;4971280;28;20222;-52
2022/04/13 12:11:17;;;;;;;78.57;13.60;;;;;;;;;;4971183;28;20183;-53
2022/04/13 12:13:46;;;;;;;73.85;12.98;;;;;;;;;;4951934;28;20692;-53
2022/04/13 12:16:17;;;;;;;63.83;11.70;;;;;;;;;;4966880;28;20714;-53
2022/04/13 12:18:43;;;;;;;78.88;14.05;;;;;;;;;;4974728;28;20632;-52
2022/04/13 12:21:10;;;;;;;64.63;11.15;;;;;;;;;;4970671;28;20222;-53
2022/04/13 12:23:37;;;;;;;56.45;10.13;;;;;;;;;;4971316;28;20178;-52
2022/04/13 12:26:03;;;;;;;61.97;11.65;;;;;;;;;;4971550;28;20663;-53
2022/04/13 12:28:29;;;;;;;75.25;13.23;;;;;;;;;;4970752;28;20281;-53
2022/04/13 12:31:04;;;;;;;77.00;14.30;;;;;;;;;;4970707;28;20573;-53
2022/04/13 12:33:31;;;;;;;67.85;12.40;;;;;;;;;;4970990;28;20213;-52
2022/04/13 12:36:02;;;;;;;57.95;10.55;;;;;;;;;;4970941;28;20240;-52
2022/04/13 12:38:35;;;;;;;74.47;13.00;;;;;;;;;;4970542;28;20198;-53
2022/04/13 12:41:04;;;;;;;78.13;14.05;;;;;;;;;;4963451;28;20191;-53
2022/04/13 12:43:31;;;;;;;67.72;12.40;;;;;;;;;;4957236;28;20233;-53
2022/04/13 12:45:57;;;;;;;42.40;7.93;;;;;;;;;;4984521;28;20225;-53
2022/04/13 12:48:29;;;;;;;70.22;12.65;;;;;;;;;;4973620;28;20213;-52
2022/04/13 12:50:59;;;;;;;45.65;8.30;;;;;;;;;;4964457;28;20587;-53
2022/04/13 12:53:26;;;;;;;60.92;10.98;;;;;;;;;;4970750;28;20686;-53
2022/04/13 12:55:53;;;;;;;288.17;53.67;;;;;;;;;;4933519;28;20698;-54
2022/04/13 12:58:19;;;;;;;195.23;34.00;;;;;;;;;;4933155;28;21166;-55
2022/04/13 13:00:49;;;;;;;152.40;26.60;;;;;;;;;;4943042;28;20226;-55
2022/04/13 13:03:15;;;;;;;182.63;29.55;;;;;;;;;;4936633;28;20233;-57
2022/04/13 13:05:41;;;;;;;130.90;20.83;;;;;;;;;;4941189;28;20222;-57
2022/04/13 13:08:07;;;;;;;83.90;14.73;;;;;;;;;;4959532;28;20682;-56
2022/04/13 13:10:34;;;;;;;102.78;17.98;;;;;;;;;;4947190;28;20218;-53
2022/04/13 13:13:19;;;;;;;165.23;27.95;;;;;;;;;;4953157;28;20213;-55
2022/04/13 13:15:45;;;;;;;133.38;24.10;;;;;;;;;;4945602;28;20227;-53
2022/04/13 13:18:11;;;;;;;120.53;22.48;;;;;;;;;;4944731;28;20233;-54
2022/04/13 13:20:56;;;;;;;180.98;33.60;;;;;;;;;;4945540;28;20581;-53
2022/04/13 13:23:23;;;;;;;160.65;29.95;;;;;;;;;;4945415;28;20214;-55
2022/04/13 13:25:49;;;;;;;111.13;20.83;;;;;;;;;;4951436;28;20268;-54
2022/04/13 13:28:15;;;;;;;291.02;47.85;;;;;;;;;;4947908;28;20225;-57
2022/04/13 13:30:45;;;;;;;174.90;30.35;;;;;;;;;;4949806;28;20217;-55
2022/04/13 13:33:11;;;;;;;166.80;29.73;;;;;;;;;;4947117;28;20222;-56
2022/04/13 13:35:38;;;;;;;155.90;27.77;;;;;;;;;;4931882;28;20317;-56
2022/04/13 13:38:04;;;;;;;146.35;25.67;;;;;;;;;;4942840;28;20218;-56
2022/04/13 13:40:31;;;;;;;155.85;27.48;;;;;;;;;;4940205;28;20403;-54
2022/04/13 13:42:58;;;;;;;224.10;38.58;;;;;;;;;;4941392;28;20226;-54
2022/04/13 13:45:26;;;;;;;96.35;19.13;;;;;;;;;;4946898;28;20226;-54
2022/04/13 13:47:52;;;;;;;287.52;57.55;;;;;;;;;;4941396;28;21195;-53
2022/04/13 13:50:18;;;;;;;155.45;29.90;;;;;;;;;;4945088;28;20689;-54
2022/04/13 13:52:45;;;;;;;128.85;25.33;;;;;;;;;;4943861;28;21162;-55
2022/04/13 13:55:11;;;;;;;126.45;23.65;;;;;;;;;;4953199;28;20292;-55
2022/04/13 13:57:37;;;;;;;123.72;23.52;;;;;;;;;;4951773;28;20273;-55
2022/04/13 14:00:03;;;;;;;137.25;26.77;;;;;;;;;;4956193;28;20213;-53
2022/04/13 14:02:29;;;;;;;129.57;25.73;;;;;;;;;;4951622;28;20191;-54
2022/04/13 14:04:55;;;;;;;147.30;27.45;;;;;;;;;;4944794;28;20238;-56
2022/04/13 14:07:21;;;;;;;396.00;77.43;;;;;;;;;;4938202;28;22540;-55
2022/04/13 14:09:47;;;;;;;118.32;23.20;;;;;;;;;;4933837;28;20296;-54
2022/04/13 14:12:13;;;;;;;239.10;44.95;;;;;;;;;;4938126;28;20758;-54
2022/04/13 14:14:40;;;;;;;198.77;39.63;;;;;;;;;;4944022;28;20222;-53
2022/04/13 14:17:06;;;;;;;147.82;28.67;;;;;;;;;;4944554;28;20925;-54